Saturday, August 24, 2019, 3:13 AM EDT
Back to Local

KFRG, Farmingdale Republic Airport

Location: Farmingdale, NY, United States Lat: 40.733
Local Time: 3:13 AM EDT ( 7:13 GMT) Lon: -73.417
Time Zone: US/Eastern Elev: 82 ft

Show me the last for .
Show Decoded

2019-08-24 02:53 METAR KFRG 240653Z AUTO 01007KT 10SM CLR 18/14 A3006 RMK AO2 SLP179 T01780144 =
2019-08-24 01:53 METAR KFRG 240553Z AUTO 02006KT 10SM CLR 17/14 A3005 RMK AO2 SLP176 T01720144
                 10217 20172 50004 =
2019-08-24 00:53 METAR KFRG 240453Z AUTO 35007KT 10SM CLR 19/14 A3006 RMK AO2 SLP177 T01890139
                 402280189 =
2019-08-23 23:53 METAR KFRG 240353Z AUTO 35005KT 10SM CLR 19/14 A3005 RMK AO2 SLP175 T01940139 =
2019-08-23 22:53 METAR KFRG 240253Z AUTO 34003KT 10SM CLR 19/14 A3004 RMK AO2 SLP172 T01940144
                 53014 =
2019-08-23 21:53 METAR KFRG 240153Z 35005KT 10SM CLR 20/14 A3002 RMK AO2 SLP164 T02000139 =
2019-08-23 20:53 METAR KFRG 240053Z 01004KT 10SM CLR 21/14 A3001 RMK AO2 SLP161 T02060144 =
2019-08-23 19:53 METAR KFRG 232353Z 33004KT 10SM CLR 22/13 A3000 RMK AO2 SLP158 T02170133 10228
                 20217 51005 =
2019-08-23 18:53 METAR KFRG 232253Z 34004KT 10SM CLR 22/13 A3000 RMK AO2 SLP157 T02220133 =
2019-08-23 17:53 METAR KFRG 232153Z 35006KT 10SM CLR 23/12 A2999 RMK AO2 SLP156 T02280122 =
2019-08-23 16:53 METAR KFRG 232053Z 36007KT 10SM CLR 23/16 A2998 RMK AO2 SLP153 T02280156 58002 =
2019-08-23 15:53 METAR KFRG 231953Z 36006KT 10SM CLR 22/16 A2999 RMK AO2 SLP156 T02220161 =
2019-08-23 14:53 METAR KFRG 231853Z 03007KT 10SM FEW110 22/16 A2999 RMK AO2 SLP154 T02170156 =
2019-08-23 13:53 METAR KFRG 231753Z 35006KT 10SM CLR 23/16 A2999 RMK AO2 SLP155 60000 T02280156
                 10228 20189 58005 =
2019-08-23 12:53 METAR KFRG 231653Z 34006KT 10SM CLR 21/15 A3000 RMK AO2 SLP157 T02110150 =
2019-08-23 11:53 METAR KFRG 231553Z 36005KT 10SM FEW050 21/16 A3000 RMK AO2 RAE00 SLP158 P0000
                 T02060161 =
2019-08-23 10:53 METAR KFRG 231453Z 01006KT 10SM -RA FEW043 BKN075 OVC110 19/16 A3001 RMK AO2
                 RAB22 SLP160 P0000 60000 T01890161 50002 =
2019-08-23 09:53 METAR KFRG 231353Z 01008KT 10SM BKN055 OVC070 19/16 A3001 RMK AO2 SLP161
                 T01890156 =
2019-08-23 08:53 METAR KFRG 231253Z 36007KT 10SM OVC045 19/15 A3001 RMK AO2 SLP162 T01940150 =
2019-08-23 07:53 METAR KFRG 231153Z 03009KT 10SM OVC036 19/16 A3000 RMK AO2 SLP158 70089
                 T01940156 10222 20194 53028 =
2019-08-23 06:53 METAR KFRG 231053Z 03005KT 10SM OVC032 20/17 A2997 RMK AO2 SLP149 T02000167 =
2019-08-23 06:39 METAR KFRG 231039Z AUTO 03006KT 10SM OVC031 20/17 A2997 RMK AO2 T02000172 =
2019-08-23 06:03 METAR KFRG 231003Z AUTO 02008KT 10SM OVC028 20/17 A2995 RMK AO2 T02000172 =
2019-08-23 05:53 METAR KFRG 230953Z AUTO 02007KT 10SM SCT023 OVC030 20/18 A2994 RMK AO2 SLP138
                 T02000178 =
2019-08-23 05:11 METAR KFRG 230911Z AUTO 02007KT 10SM SCT012 BKN022 OVC110 21/18 A2993 RMK AO2
                 T02060183 =
2019-08-23 04:53 METAR KFRG 230853Z AUTO 02010KT 10SM SCT009 BKN014 21/19 A2992 RMK AO2 SLP130
                 T02110194 53002 =
2019-08-23 04:43 METAR KFRG 230843Z AUTO 01010G16KT 10SM BKN008 BKN014 22/21 A2991 RMK AO2
                 T02170206 =
2019-08-23 04:04 METAR KFRG 230804Z AUTO 35003KT 10SM FEW006 22/21 A2990 RMK AO2 T02220211 =
2019-08-23 03:53 METAR KFRG 230753Z AUTO 33004KT 10SM CLR 22/21 A2990 RMK AO2 SLP123 T02220211 =

Support USWX by starting your Amazon purchase here.